sensor_id;sensor_type;location;lat;lon;timestamp;temperature;humidity
71188;DHT22;58893;53.130;8.158;2023-05-07T00:02:06;14.70;90.80
71188;DHT22;58893;53.130;8.158;2023-05-07T00:04:32;14.70;90.80
71188;DHT22;58893;53.130;8.158;2023-05-07T00:07:02;14.70;90.80
71188;DHT22;58893;53.130;8.158;2023-05-07T00:09:28;14.70;90.90
71188;DHT22;58893;53.130;8.158;2023-05-07T00:11:53;14.70;90.90
71188;DHT22;58893;53.130;8.158;2023-05-07T00:14:19;14.60;90.80
71188;DHT22;58893;53.130;8.158;2023-05-07T00:16:46;14.60;90.90
71188;DHT22;58893;53.130;8.158;2023-05-07T00:19:11;14.60;90.90
71188;DHT22;58893;53.130;8.158;2023-05-07T00:21:37;14.60;90.90
71188;DHT22;58893;53.130;8.158;2023-05-07T00:24:03;14.60;90.90
71188;DHT22;58893;53.130;8.158;2023-05-07T00:26:29;14.60;91.00
71188;DHT22;58893;53.130;8.158;2023-05-07T00:28:54;14.50;91.00
71188;DHT22;58893;53.130;8.158;2023-05-07T00:31:20;14.50;91.10
71188;DHT22;58893;53.130;8.158;2023-05-07T00:33:45;14.50;91.10
71188;DHT22;58893;53.130;8.158;2023-05-07T00:36:12;14.50;91.10
71188;DHT22;58893;53.130;8.158;2023-05-07T00:38:37;14.50;91.00
71188;DHT22;58893;53.130;8.158;2023-05-07T00:41:03;14.50;91.10
71188;DHT22;58893;53.130;8.158;2023-05-07T00:43:28;14.50;91.10
71188;DHT22;58893;53.130;8.158;2023-05-07T00:45:55;14.50;91.20
71188;DHT22;58893;53.130;8.158;2023-05-07T00:48:20;14.50;91.20
71188;DHT22;58893;53.130;8.158;2023-05-07T00:50:46;14.50;91.20
71188;DHT22;58893;53.130;8.158;2023-05-07T00:53:13;14.50;91.10
71188;DHT22;58893;53.130;8.158;2023-05-07T00:55:39;14.40;91.40
71188;DHT22;58893;53.130;8.158;2023-05-07T00:58:05;14.40;91.10
71188;DHT22;58893;53.130;8.158;2023-05-07T01:00:31;14.40;91.00
71188;DHT22;58893;53.130;8.158;2023-05-07T01:02:57;14.40;91.00
71188;DHT22;58893;53.130;8.158;2023-05-07T01:05:24;14.40;91.00
71188;DHT22;58893;53.130;8.158;2023-05-07T01:07:51;14.40;91.00
71188;DHT22;58893;53.130;8.158;2023-05-07T01:10:18;14.40;91.00
71188;DHT22;58893;53.130;8.158;2023-05-07T01:12:45;14.40;91.00
71188;DHT22;58893;53.130;8.158;2023-05-07T01:15:11;14.40;90.90
71188;DHT22;58893;53.130;8.158;2023-05-07T01:17:39;14.40;91.00
71188;DHT22;58893;53.130;8.158;2023-05-07T01:20:06;14.40;91.10
71188;DHT22;58893;53.130;8.158;2023-05-07T01:22:34;14.30;91.00
71188;DHT22;58893;53.130;8.158;2023-05-07T01:25:00;14.30;90.80
71188;DHT22;58893;53.130;8.158;2023-05-07T01:27:27;14.30;90.70
71188;DHT22;58893;53.130;8.158;2023-05-07T01:29:53;14.20;90.80
71188;DHT22;58893;53.130;8.158;2023-05-07T01:32:32;14.20;90.90
71188;DHT22;58893;53.130;8.158;2023-05-07T01:35:00;14.20;90.90
71188;DHT22;58893;53.130;8.158;2023-05-07T01:37:26;14.20;90.80
71188;DHT22;58893;53.130;8.158;2023-05-07T01:39:52;14.20;90.70
71188;DHT22;58893;53.130;8.158;2023-05-07T01:42:19;14.20;90.50
71188;DHT22;58893;53.130;8.158;2023-05-07T01:44:45;14.10;90.60
71188;DHT22;58893;53.130;8.158;2023-05-07T01:47:12;14.10;90.70
71188;DHT22;58893;53.130;8.158;2023-05-07T01:49:38;14.10;90.70
71188;DHT22;58893;53.130;8.158;2023-05-07T01:52:04;14.10;90.70
71188;DHT22;58893;53.130;8.158;2023-05-07T01:54:29;14.10;90.60
71188;DHT22;58893;53.130;8.158;2023-05-07T01:56:59;14.00;90.60
71188;DHT22;58893;53.130;8.158;2023-05-07T01:59:25;14.00;90.60
71188;DHT22;58893;53.130;8.158;2023-05-07T02:01:51;14.00;90.60
71188;DHT22;58893;53.130;8.158;2023-05-07T02:04:17;14.00;90.60
71188;DHT22;58893;53.130;8.158;2023-05-07T02:06:43;14.00;90.70
71188;DHT22;58893;53.130;8.158;2023-05-07T02:09:08;14.00;90.60
71188;DHT22;58893;53.130;8.158;2023-05-07T02:11:34;14.00;90.50
71188;DHT22;58893;53.130;8.158;2023-05-07T02:14:00;13.90;90.50
71188;DHT22;58893;53.130;8.158;2023-05-07T02:16:25;13.90;90.50
71188;DHT22;58893;53.130;8.158;2023-05-07T02:18:51;13.90;90.50
71188;DHT22;58893;53.130;8.158;2023-05-07T02:21:17;13.90;90.50
71188;DHT22;58893;53.130;8.158;2023-05-07T02:23:43;13.90;90.60
71188;DHT22;58893;53.130;8.158;2023-05-07T02:26:08;13.90;90.50
71188;DHT22;58893;53.130;8.158;2023-05-07T02:28:34;13.90;90.40
71188;DHT22;58893;53.130;8.158;2023-05-07T02:31:03;13.90;90.40
71188;DHT22;58893;53.130;8.158;2023-05-07T02:33:29;13.90;90.40
71188;DHT22;58893;53.130;8.158;2023-05-07T02:35:56;13.90;90.40
71188;DHT22;58893;53.130;8.158;2023-05-07T02:38:22;13.90;90.40
71188;DHT22;58893;53.130;8.158;2023-05-07T02:40:48;13.90;90.30
71188;DHT22;58893;53.130;8.158;2023-05-07T02:43:13;13.90;90.30
71188;DHT22;58893;53.130;8.158;2023-05-07T02:45:39;13.90;90.30
71188;DHT22;58893;53.130;8.158;2023-05-07T02:48:05;13.90;90.30
71188;DHT22;58893;53.130;8.158;2023-05-07T02:50:33;13.80;90.30
71188;DHT22;58893;53.130;8.158;2023-05-07T02:52:59;13.80;90.20
71188;DHT22;58893;53.130;8.158;2023-05-07T02:55:24;13.80;90.20
71188;DHT22;58893;53.130;8.158;2023-05-07T02:57:50;13.80;90.10
71188;DHT22;58893;53.130;8.158;2023-05-07T03:00:19;13.80;90.10
71188;DHT22;58893;53.130;8.158;2023-05-07T03:02:45;13.70;90.10
71188;DHT22;58893;53.130;8.158;2023-05-07T03:05:11;13.70;90.00
71188;DHT22;58893;53.130;8.158;2023-05-07T03:07:38;13.70;90.00
71188;DHT22;58893;53.130;8.158;2023-05-07T03:10:04;13.70;90.10
71188;DHT22;58893;53.130;8.158;2023-05-07T03:12:30;13.70;90.10
71188;DHT22;58893;53.130;8.158;2023-05-07T03:14:56;13.70;90.10
71188;DHT22;58893;53.130;8.158;2023-05-07T03:17:22;13.70;90.30
71188;DHT22;58893;53.130;8.158;2023-05-07T03:19:48;13.70;89.90
71188;DHT22;58893;53.130;8.158;2023-05-07T03:22:14;13.70;90.00
71188;DHT22;58893;53.130;8.158;2023-05-07T03:24:39;13.60;89.80
71188;DHT22;58893;53.130;8.158;2023-05-07T03:27:05;13.60;89.80
71188;DHT22;58893;53.130;8.158;2023-05-07T03:29:31;13.60;89.90
71188;DHT22;58893;53.130;8.158;2023-05-07T03:31:56;13.50;89.50
71188;DHT22;58893;53.130;8.158;2023-05-07T03:34:22;13.50;89.60
71188;DHT22;58893;53.130;8.158;2023-05-07T03:36:50;13.40;89.70
71188;DHT22;58893;53.130;8.158;2023-05-07T03:39:16;13.40;89.90
71188;DHT22;58893;53.130;8.158;2023-05-07T03:41:42;13.40;89.90
71188;DHT22;58893;53.130;8.158;2023-05-07T03:44:07;13.40;90.00
71188;DHT22;58893;53.130;8.158;2023-05-07T03:46:34;13.30;90.00
71188;DHT22;58893;53.130;8.158;2023-05-07T03:49:00;13.30;90.00
71188;DHT22;58893;53.130;8.158;2023-05-07T03:51:25;13.30;90.10
71188;DHT22;58893;53.130;8.158;2023-05-07T03:53:51;13.30;90.20
71188;DHT22;58893;53.130;8.158;2023-05-07T03:56:22;13.30;90.30
71188;DHT22;58893;53.130;8.158;2023-05-07T03:58:48;13.20;90.20
71188;DHT22;58893;53.130;8.158;2023-05-07T04:01:14;13.20;90.30
71188;DHT22;58893;53.130;8.158;2023-05-07T04:03:40;13.20;90.40
71188;DHT22;58893;53.130;8.158;2023-05-07T04:06:05;13.20;90.40
71188;DHT22;58893;53.130;8.158;2023-05-07T04:08:31;13.20;90.50
71188;DHT22;58893;53.130;8.158;2023-05-07T04:10:57;13.20;90.60
71188;DHT22;58893;53.130;8.158;2023-05-07T04:13:24;13.10;90.60
71188;DHT22;58893;53.130;8.158;2023-05-07T04:15:50;13.10;90.60
71188;DHT22;58893;53.130;8.158;2023-05-07T04:18:16;13.10;91.00
71188;DHT22;58893;53.130;8.158;2023-05-07T04:20:41;13.10;90.50
71188;DHT22;58893;53.130;8.158;2023-05-07T04:23:07;13.10;90.60
71188;DHT22;58893;53.130;8.158;2023-05-07T04:25:33;13.10;90.50
71188;DHT22;58893;53.130;8.158;2023-05-07T04:27:59;13.10;90.60
71188;DHT22;58893;53.130;8.158;2023-05-07T04:30:25;13.10;90.70
71188;DHT22;58893;53.130;8.158;2023-05-07T04:32:51;13.10;90.70
71188;DHT22;58893;53.130;8.158;2023-05-07T04:35:16;13.10;90.60
71188;DHT22;58893;53.130;8.158;2023-05-07T04:37:42;13.10;90.60
71188;DHT22;58893;53.130;8.158;2023-05-07T04:40:08;13.10;90.70
71188;DHT22;58893;53.130;8.158;2023-05-07T04:42:34;13.10;90.80
71188;DHT22;58893;53.130;8.158;2023-05-07T04:44:59;13.20;90.90
71188;DHT22;58893;53.130;8.158;2023-05-07T04:47:26;13.20;90.80
71188;DHT22;58893;53.130;8.158;2023-05-07T04:49:52;13.20;90.70
71188;DHT22;58893;53.130;8.158;2023-05-07T04:52:17;13.20;90.60
71188;DHT22;58893;53.130;8.158;2023-05-07T04:54:43;13.20;90.60
71188;DHT22;58893;53.130;8.158;2023-05-07T04:57:09;13.20;90.60
71188;DHT22;58893;53.130;8.158;2023-05-07T04:59:34;13.30;90.70
71188;DHT22;58893;53.130;8.158;2023-05-07T05:02:00;13.30;90.70
71188;DHT22;58893;53.130;8.158;2023-05-07T05:04:26;13.30;90.90
71188;DHT22;58893;53.130;8.158;2023-05-07T05:06:52;13.30;90.60
71188;DHT22;58893;53.130;8.158;2023-05-07T05:09:18;13.30;91.00
71188;DHT22;58893;53.130;8.158;2023-05-07T05:11:44;13.30;90.60
71188;DHT22;58893;53.130;8.158;2023-05-07T05:14:09;13.30;90.60
71188;DHT22;58893;53.130;8.158;2023-05-07T05:16:35;13.30;90.70
71188;DHT22;58893;53.130;8.158;2023-05-07T05:19:01;13.30;90.70
71188;DHT22;58893;53.130;8.158;2023-05-07T05:21:27;13.30;90.70
71188;DHT22;58893;53.130;8.158;2023-05-07T05:23:52;13.30;90.70
71188;DHT22;58893;53.130;8.158;2023-05-07T05:26:18;13.30;90.80
71188;DHT22;58893;53.130;8.158;2023-05-07T05:28:44;13.20;91.00
71188;DHT22;58893;53.130;8.158;2023-05-07T05:31:10;13.30;91.20
71188;DHT22;58893;53.130;8.158;2023-05-07T05:33:35;13.20;91.20
71188;DHT22;58893;53.130;8.158;2023-05-07T05:36:01;13.20;91.30
71188;DHT22;58893;53.130;8.158;2023-05-07T05:38:27;13.20;91.30
71188;DHT22;58893;53.130;8.158;2023-05-07T05:40:52;13.20;91.30
71188;DHT22;58893;53.130;8.158;2023-05-07T05:43:18;13.20;91.40
71188;DHT22;58893;53.130;8.158;2023-05-07T05:45:44;13.20;91.40
71188;DHT22;58893;53.130;8.158;2023-05-07T05:48:09;13.20;91.40
71188;DHT22;58893;53.130;8.158;2023-05-07T05:50:35;13.20;91.30
71188;DHT22;58893;53.130;8.158;2023-05-07T05:53:03;13.20;91.40
71188;DHT22;58893;53.130;8.158;2023-05-07T05:55:29;13.10;91.40
71188;DHT22;58893;53.130;8.158;2023-05-07T05:57:55;13.10;91.40
71188;DHT22;58893;53.130;8.158;2023-05-07T06:00:22;13.20;91.70
71188;DHT22;58893;53.130;8.158;2023-05-07T06:02:48;13.10;91.70
71188;DHT22;58893;53.130;8.158;2023-05-07T06:05:13;13.10;91.30
71188;DHT22;58893;53.130;8.158;2023-05-07T06:07:40;13.10;91.40
71188;DHT22;58893;53.130;8.158;2023-05-07T06:10:06;13.10;91.50
71188;DHT22;58893;53.130;8.158;2023-05-07T06:12:32;13.20;91.60
71188;DHT22;58893;53.130;8.158;2023-05-07T06:14:58;13.20;91.30
71188;DHT22;58893;53.130;8.158;2023-05-07T06:17:23;13.20;91.30
71188;DHT22;58893;53.130;8.158;2023-05-07T06:19:49;13.20;91.40
71188;DHT22;58893;53.130;8.158;2023-05-07T06:22:15;13.20;91.50
71188;DHT22;58893;53.130;8.158;2023-05-07T06:24:40;13.20;91.50
71188;DHT22;58893;53.130;8.158;2023-05-07T06:27:06;13.20;91.60
71188;DHT22;58893;53.130;8.158;2023-05-07T06:29:31;13.20;91.60
71188;DHT22;58893;53.130;8.158;2023-05-07T06:32:07;13.20;91.60
71188;DHT22;58893;53.130;8.158;2023-05-07T06:34:33;13.20;91.70
71188;DHT22;58893;53.130;8.158;2023-05-07T06:36:58;13.20;91.70
71188;DHT22;58893;53.130;8.158;2023-05-07T06:39:24;13.20;91.60
71188;DHT22;58893;53.130;8.158;2023-05-07T06:41:49;13.20;91.50
71188;DHT22;58893;53.130;8.158;2023-05-07T06:44:15;13.20;91.40
71188;DHT22;58893;53.130;8.158;2023-05-07T06:46:41;13.20;91.50
71188;DHT22;58893;53.130;8.158;2023-05-07T06:49:07;13.20;91.60
71188;DHT22;58893;53.130;8.158;2023-05-07T06:51:32;13.20;91.70
71188;DHT22;58893;53.130;8.158;2023-05-07T06:53:58;13.30;91.80
71188;DHT22;58893;53.130;8.158;2023-05-07T06:56:24;13.30;91.80
71188;DHT22;58893;53.130;8.158;2023-05-07T06:58:50;13.30;91.80
71188;DHT22;58893;53.130;8.158;2023-05-07T07:01:16;13.30;91.80
71188;DHT22;58893;53.130;8.158;2023-05-07T07:03:41;13.30;91.80
71188;DHT22;58893;53.130;8.158;2023-05-07T07:06:07;13.30;91.90
71188;DHT22;58893;53.130;8.158;2023-05-07T07:08:32;13.30;92.00
71188;DHT22;58893;53.130;8.158;2023-05-07T07:10:58;13.30;92.10
71188;DHT22;58893;53.130;8.158;2023-05-07T07:13:24;13.30;92.10
71188;DHT22;58893;53.130;8.158;2023-05-07T07:15:51;13.30;92.20
71188;DHT22;58893;53.130;8.158;2023-05-07T07:18:16;13.30;92.30
71188;DHT22;58893;53.130;8.158;2023-05-07T07:20:42;13.40;92.20
71188;DHT22;58893;53.130;8.158;2023-05-07T07:23:09;13.40;91.80
71188;DHT22;58893;53.130;8.158;2023-05-07T07:25:35;13.40;91.70
71188;DHT22;58893;53.130;8.158;2023-05-07T07:28:01;13.40;91.30
71188;DHT22;58893;53.130;8.158;2023-05-07T07:30:26;13.30;91.20
71188;DHT22;58893;53.130;8.158;2023-05-07T07:32:52;13.40;90.90
71188;DHT22;58893;53.130;8.158;2023-05-07T07:35:18;13.30;90.90
71188;DHT22;58893;53.130;8.158;2023-05-07T07:37:44;13.30;90.80
71188;DHT22;58893;53.130;8.158;2023-05-07T07:40:10;13.30;90.70
71188;DHT22;58893;53.130;8.158;2023-05-07T07:42:36;13.30;90.70
71188;DHT22;58893;53.130;8.158;2023-05-07T07:45:02;13.30;90.60
71188;DHT22;58893;53.130;8.158;2023-05-07T07:47:28;13.30;90.60
71188;DHT22;58893;53.130;8.158;2023-05-07T07:49:54;13.30;90.50
71188;DHT22;58893;53.130;8.158;2023-05-07T07:52:19;13.30;90.50
71188;DHT22;58893;53.130;8.158;2023-05-07T07:54:45;13.30;90.60
71188;DHT22;58893;53.130;8.158;2023-05-07T07:57:11;13.30;90.90
71188;DHT22;58893;53.130;8.158;2023-05-07T07:59:36;13.30;90.60
71188;DHT22;58893;53.130;8.158;2023-05-07T08:02:02;13.40;90.60
71188;DHT22;58893;53.130;8.158;2023-05-07T08:04:27;13.40;90.60
71188;DHT22;58893;53.130;8.158;2023-05-07T08:06:53;13.40;90.60
71188;DHT22;58893;53.130;8.158;2023-05-07T08:09:19;13.40;90.50
71188;DHT22;58893;53.130;8.158;2023-05-07T08:11:45;13.40;90.50
71188;DHT22;58893;53.130;8.158;2023-05-07T08:14:11;13.50;90.70
71188;DHT22;58893;53.130;8.158;2023-05-07T08:16:37;13.50;90.60
71188;DHT22;58893;53.130;8.158;2023-05-07T08:19:02;13.50;90.50
71188;DHT22;58893;53.130;8.158;2023-05-07T08:21:28;13.50;90.30
71188;DHT22;58893;53.130;8.158;2023-05-07T08:23:54;13.50;90.40
71188;DHT22;58893;53.130;8.158;2023-05-07T08:26:20;13.50;90.40
71188;DHT22;58893;53.130;8.158;2023-05-07T08:28:45;13.50;90.40
71188;DHT22;58893;53.130;8.158;2023-05-07T08:31:11;13.50;90.40
71188;DHT22;58893;53.130;8.158;2023-05-07T08:33:37;13.50;90.50
71188;DHT22;58893;53.130;8.158;2023-05-07T08:36:04;13.50;90.50
71188;DHT22;58893;53.130;8.158;2023-05-07T08:38:30;13.50;90.60
71188;DHT22;58893;53.130;8.158;2023-05-07T08:40:56;13.60;90.60
71188;DHT22;58893;53.130;8.158;2023-05-07T08:43:24;13.60;90.50
71188;DHT22;58893;53.130;8.158;2023-05-07T08:45:53;13.60;90.50
71188;DHT22;58893;53.130;8.158;2023-05-07T08:48:22;13.50;90.20
71188;DHT22;58893;53.130;8.158;2023-05-07T08:50:50;13.60;90.40
71188;DHT22;58893;53.130;8.158;2023-05-07T08:53:17;13.60;90.40
71188;DHT22;58893;53.130;8.158;2023-05-07T08:55:43;13.60;90.70
71188;DHT22;58893;53.130;8.158;2023-05-07T08:58:08;13.60;90.20
71188;DHT22;58893;53.130;8.158;2023-05-07T09:00:36;13.60;90.20
71188;DHT22;58893;53.130;8.158;2023-05-07T09:03:02;13.60;90.10
71188;DHT22;58893;53.130;8.158;2023-05-07T09:05:28;13.60;90.10
71188;DHT22;58893;53.130;8.158;2023-05-07T09:07:53;13.70;90.00
71188;DHT22;58893;53.130;8.158;2023-05-07T09:10:21;13.60;89.70
71188;DHT22;58893;53.130;8.158;2023-05-07T09:12:47;13.70;89.80
71188;DHT22;58893;53.130;8.158;2023-05-07T09:15:12;13.70;89.80
71188;DHT22;58893;53.130;8.158;2023-05-07T09:17:38;13.70;89.90
71188;DHT22;58893;53.130;8.158;2023-05-07T09:20:05;13.80;90.00
71188;DHT22;58893;53.130;8.158;2023-05-07T09:22:36;13.80;90.00
71188;DHT22;58893;53.130;8.158;2023-05-07T09:25:02;13.80;90.00
71188;DHT22;58893;53.130;8.158;2023-05-07T09:27:28;13.80;90.00
71188;DHT22;58893;53.130;8.158;2023-05-07T09:29:54;13.90;89.40
71188;DHT22;58893;53.130;8.158;2023-05-07T09:32:19;13.90;89.10
71188;DHT22;58893;53.130;8.158;2023-05-07T09:34:45;13.90;89.00
71188;DHT22;58893;53.130;8.158;2023-05-07T09:37:13;14.00;88.90
71188;DHT22;58893;53.130;8.158;2023-05-07T09:39:45;14.00;88.80
71188;DHT22;58893;53.130;8.158;2023-05-07T09:42:11;14.10;88.50
71188;DHT22;58893;53.130;8.158;2023-05-07T09:44:38;14.10;88.10
71188;DHT22;58893;53.130;8.158;2023-05-07T09:47:07;14.20;88.20
71188;DHT22;58893;53.130;8.158;2023-05-07T09:49:37;14.30;88.30
71188;DHT22;58893;53.130;8.158;2023-05-07T09:52:05;14.30;88.40
71188;DHT22;58893;53.130;8.158;2023-05-07T09:54:32;14.40;88.30
71188;DHT22;58893;53.130;8.158;2023-05-07T09:56:59;14.50;87.70
71188;DHT22;58893;53.130;8.158;2023-05-07T09:59:27;14.50;87.10
71188;DHT22;58893;53.130;8.158;2023-05-07T10:01:57;14.50;86.50
71188;DHT22;58893;53.130;8.158;2023-05-07T10:04:27;14.60;86.20
71188;DHT22;58893;53.130;8.158;2023-05-07T10:06:54;14.60;86.30
71188;DHT22;58893;53.130;8.158;2023-05-07T10:09:21;14.60;86.20
71188;DHT22;58893;53.130;8.158;2023-05-07T10:11:49;14.70;85.60
71188;DHT22;58893;53.130;8.158;2023-05-07T10:14:15;14.70;85.70
71188;DHT22;58893;53.130;8.158;2023-05-07T10:16:41;14.70;85.50
71188;DHT22;58893;53.130;8.158;2023-05-07T10:19:08;14.80;85.20
71188;DHT22;58893;53.130;8.158;2023-05-07T10:21:39;14.80;85.20
71188;DHT22;58893;53.130;8.158;2023-05-07T10:24:06;14.80;85.40
71188;DHT22;58893;53.130;8.158;2023-05-07T10:26:43;14.90;85.40
71188;DHT22;58893;53.130;8.158;2023-05-07T10:34:37;15.10;85.10
71188;DHT22;58893;53.130;8.158;2023-05-07T10:37:04;15.10;85.30
71188;DHT22;58893;53.130;8.158;2023-05-07T10:39:31;15.20;85.00
71188;DHT22;58893;53.130;8.158;2023-05-07T10:41:56;15.20;84.30
71188;DHT22;58893;53.130;8.158;2023-05-07T10:44:26;15.30;84.40
71188;DHT22;58893;53.130;8.158;2023-05-07T10:47:13;15.30;84.30
71188;DHT22;58893;53.130;8.158;2023-05-07T10:52:21;15.40;83.60
71188;DHT22;58893;53.130;8.158;2023-05-07T10:57:40;15.50;83.60
71188;DHT22;58893;53.130;8.158;2023-05-07T11:05:29;15.70;82.80
71188;DHT22;58893;53.130;8.158;2023-05-07T11:07:58;15.80;82.80
71188;DHT22;58893;53.130;8.158;2023-05-07T11:13:41;15.80;81.60
71188;DHT22;58893;53.130;8.158;2023-05-07T11:16:21;15.80;81.20
71188;DHT22;58893;53.130;8.158;2023-05-07T11:18:54;15.90;81.40
71188;DHT22;58893;53.130;8.158;2023-05-07T11:21:38;15.90;81.30
71188;DHT22;58893;53.130;8.158;2023-05-07T11:24:08;15.90;81.20
71188;DHT22;58893;53.130;8.158;2023-05-07T11:26:48;15.90;80.70
71188;DHT22;58893;53.130;8.158;2023-05-07T11:29:16;15.90;81.10
71188;DHT22;58893;53.130;8.158;2023-05-07T11:31:42;15.90;80.80
71188;DHT22;58893;53.130;8.158;2023-05-07T11:34:08;15.90;80.90
71188;DHT22;58893;53.130;8.158;2023-05-07T11:36:36;15.90;81.40
71188;DHT22;58893;53.130;8.158;2023-05-07T11:39:29;16.00;81.20
71188;DHT22;58893;53.130;8.158;2023-05-07T11:41:56;16.00;80.60
71188;DHT22;58893;53.130;8.158;2023-05-07T11:44:22;16.00;80.50
71188;DHT22;58893;53.130;8.158;2023-05-07T11:46:48;16.00;80.20
71188;DHT22;58893;53.130;8.158;2023-05-07T11:49:14;16.00;80.50
71188;DHT22;58893;53.130;8.158;2023-05-07T11:51:40;16.00;80.40
71188;DHT22;58893;53.130;8.158;2023-05-07T11:54:08;16.00;80.60
71188;DHT22;58893;53.130;8.158;2023-05-07T11:56:34;16.10;80.60
71188;DHT22;58893;53.130;8.158;2023-05-07T11:59:04;16.10;81.00
71188;DHT22;58893;53.130;8.158;2023-05-07T12:01:30;16.10;80.80
71188;DHT22;58893;53.130;8.158;2023-05-07T12:03:55;16.10;80.90
71188;DHT22;58893;53.130;8.158;2023-05-07T12:06:21;16.20;81.10
71188;DHT22;58893;53.130;8.158;2023-05-07T12:08:47;16.20;81.00
71188;DHT22;58893;53.130;8.158;2023-05-07T12:11:24;16.20;80.50
71188;DHT22;58893;53.130;8.158;2023-05-07T12:13:50;16.20;80.40
71188;DHT22;58893;53.130;8.158;2023-05-07T12:16:16;16.20;80.40
71188;DHT22;58893;53.130;8.158;2023-05-07T12:18:42;16.20;80.40
71188;DHT22;58893;53.130;8.158;2023-05-07T12:21:09;16.20;80.50
71188;DHT22;58893;53.130;8.158;2023-05-07T12:23:36;16.20;80.60
71188;DHT22;58893;53.130;8.158;2023-05-07T12:26:02;16.20;80.90
71188;DHT22;58893;53.130;8.158;2023-05-07T12:28:28;16.20;80.80
71188;DHT22;58893;53.130;8.158;2023-05-07T12:30:54;16.20;80.50
71188;DHT22;58893;53.130;8.158;2023-05-07T12:33:25;16.20;80.40
71188;DHT22;58893;53.130;8.158;2023-05-07T12:35:51;16.20;80.20
71188;DHT22;58893;53.130;8.158;2023-05-07T12:38:18;16.20;80.30
71188;DHT22;58893;53.130;8.158;2023-05-07T12:40:49;16.20;80.50
71188;DHT22;58893;53.130;8.158;2023-05-07T12:43:25;16.20;80.60
71188;DHT22;58893;53.130;8.158;2023-05-07T12:45:53;16.20;80.50
71188;DHT22;58893;53.130;8.158;2023-05-07T12:48:19;16.20;80.50
71188;DHT22;58893;53.130;8.158;2023-05-07T12:50:55;16.20;80.50
71188;DHT22;58893;53.130;8.158;2023-05-07T12:53:24;16.20;80.30
71188;DHT22;58893;53.130;8.158;2023-05-07T12:55:55;16.20;80.00
71188;DHT22;58893;53.130;8.158;2023-05-07T12:58:25;16.20;80.10
71188;DHT22;58893;53.130;8.158;2023-05-07T13:00:51;16.20;80.40
71188;DHT22;58893;53.130;8.158;2023-05-07T13:03:34;16.20;80.50
71188;DHT22;58893;53.130;8.158;2023-05-07T13:06:09;16.30;80.00
71188;DHT22;58893;53.130;8.158;2023-05-07T13:08:37;16.30;80.10
71188;DHT22;58893;53.130;8.158;2023-05-07T13:11:07;16.30;80.30
71188;DHT22;58893;53.130;8.158;2023-05-07T13:13:34;16.30;80.10
71188;DHT22;58893;53.130;8.158;2023-05-07T13:16:04;16.30;80.10
71188;DHT22;58893;53.130;8.158;2023-05-07T13:18:32;16.30;79.80
71188;DHT22;58893;53.130;8.158;2023-05-07T13:20:58;16.40;80.00
71188;DHT22;58893;53.130;8.158;2023-05-07T13:23:24;16.40;80.30
71188;DHT22;58893;53.130;8.158;2023-05-07T13:25:50;16.40;80.60
71188;DHT22;58893;53.130;8.158;2023-05-07T13:28:16;16.50;80.60
71188;DHT22;58893;53.130;8.158;2023-05-07T13:30:41;16.50;80.10
71188;DHT22;58893;53.130;8.158;2023-05-07T13:33:07;16.60;80.10
71188;DHT22;58893;53.130;8.158;2023-05-07T13:35:33;16.60;80.30
71188;DHT22;58893;53.130;8.158;2023-05-07T13:37:59;16.70;80.30
71188;DHT22;58893;53.130;8.158;2023-05-07T13:40:25;16.80;80.20
71188;DHT22;58893;53.130;8.158;2023-05-07T13:42:50;16.90;79.70
71188;DHT22;58893;53.130;8.158;2023-05-07T13:45:17;16.90;79.60
71188;DHT22;58893;53.130;8.158;2023-05-07T13:47:43;17.00;79.50
71188;DHT22;58893;53.130;8.158;2023-05-07T13:50:10;17.00;79.50
71188;DHT22;58893;53.130;8.158;2023-05-07T13:52:38;17.00;79.40
71188;DHT22;58893;53.130;8.158;2023-05-07T13:55:05;17.10;79.50
71188;DHT22;58893;53.130;8.158;2023-05-07T13:57:31;17.10;79.30
71188;DHT22;58893;53.130;8.158;2023-05-07T13:59:57;17.10;79.00
71188;DHT22;58893;53.130;8.158;2023-05-07T14:02:22;17.10;79.00
71188;DHT22;58893;53.130;8.158;2023-05-07T14:04:48;17.20;78.90
71188;DHT22;58893;53.130;8.158;2023-05-07T14:07:14;17.20;78.80
71188;DHT22;58893;53.130;8.158;2023-05-07T14:09:40;17.20;78.70
71188;DHT22;58893;53.130;8.158;2023-05-07T14:12:07;17.30;78.90
71188;DHT22;58893;53.130;8.158;2023-05-07T14:14:32;17.30;78.60
71188;DHT22;58893;53.130;8.158;2023-05-07T14:16:58;17.30;78.70
71188;DHT22;58893;53.130;8.158;2023-05-07T14:19:23;17.30;78.70
71188;DHT22;58893;53.130;8.158;2023-05-07T14:21:49;17.40;78.40
71188;DHT22;58893;53.130;8.158;2023-05-07T14:24:15;17.40;78.20
71188;DHT22;58893;53.130;8.158;2023-05-07T14:26:40;17.40;78.20
71188;DHT22;58893;53.130;8.158;2023-05-07T14:29:06;17.40;77.90
71188;DHT22;58893;53.130;8.158;2023-05-07T14:31:31;17.40;77.60
71188;DHT22;58893;53.130;8.158;2023-05-07T14:33:58;17.40;77.80
71188;DHT22;58893;53.130;8.158;2023-05-07T14:36:24;17.40;77.90
71188;DHT22;58893;53.130;8.158;2023-05-07T14:38:52;17.40;78.40
71188;DHT22;58893;53.130;8.158;2023-05-07T14:41:19;17.50;79.00
71188;DHT22;58893;53.130;8.158;2023-05-07T14:43:47;17.50;79.00
71188;DHT22;58893;53.130;8.158;2023-05-07T14:46:16;17.50;78.50
71188;DHT22;58893;53.130;8.158;2023-05-07T14:48:44;17.50;78.40
71188;DHT22;58893;53.130;8.158;2023-05-07T14:51:10;17.50;78.10
71188;DHT22;58893;53.130;8.158;2023-05-07T14:53:36;17.60;77.80
71188;DHT22;58893;53.130;8.158;2023-05-07T14:56:01;17.60;77.50
71188;DHT22;58893;53.130;8.158;2023-05-07T14:58:28;17.60;77.20
71188;DHT22;58893;53.130;8.158;2023-05-07T15:00:54;17.60;77.10
71188;DHT22;58893;53.130;8.158;2023-05-07T15:03:20;17.70;77.30
71188;DHT22;58893;53.130;8.158;2023-05-07T15:05:45;17.70;77.60
71188;DHT22;58893;53.130;8.158;2023-05-07T15:08:11;17.70;76.80
71188;DHT22;58893;53.130;8.158;2023-05-07T15:10:37;17.70;76.40
71188;DHT22;58893;53.130;8.158;2023-05-07T15:13:10;17.70;76.00
71188;DHT22;58893;53.130;8.158;2023-05-07T15:15:36;17.70;75.70
71188;DHT22;58893;53.130;8.158;2023-05-07T15:18:02;17.80;75.10
71188;DHT22;58893;53.130;8.158;2023-05-07T15:20:28;17.80;75.40
71188;DHT22;58893;53.130;8.158;2023-05-07T15:22:54;17.80;75.50
71188;DHT22;58893;53.130;8.158;2023-05-07T15:25:19;17.80;75.60
71188;DHT22;58893;53.130;8.158;2023-05-07T15:27:46;17.80;75.50
71188;DHT22;58893;53.130;8.158;2023-05-07T15:30:12;17.80;75.40
71188;DHT22;58893;53.130;8.158;2023-05-07T15:32:38;17.80;75.60
71188;DHT22;58893;53.130;8.158;2023-05-07T15:35:04;17.80;75.50
71188;DHT22;58893;53.130;8.158;2023-05-07T15:37:31;17.80;75.10
71188;DHT22;58893;53.130;8.158;2023-05-07T15:39:56;17.80;74.90
71188;DHT22;58893;53.130;8.158;2023-05-07T15:42:22;17.80;74.90
71188;DHT22;58893;53.130;8.158;2023-05-07T15:44:47;17.80;74.90
71188;DHT22;58893;53.130;8.158;2023-05-07T15:47:14;17.80;74.70